Time;durP1;ratioP1;P1;durP2;ratioP2;P2;SDS_P1;SDS_P2;PMS_P1;PMS_P2;Temp;Humidity;BMP_temperature;BMP_pressure;BME280_temperature;BME280_humidity;BME280_pressure;Samples;Min_cycle;Max_cycle;Signal;HPM_P1;HPM_P2
2021/04/24 00:00:05;;;;;;;;;;;;;;;3.41;64.06;100494.94;5176313;27;19978;-71
2021/04/24 00:02:35;;;;;;;;;;;;;;;3.36;63.78;100501.44;5176435;27;19922;-71
2021/04/24 00:05:03;;;;;;;;;;;;;;;3.27;63.69;100503.59;5176300;27;19930;-71
2021/04/24 00:07:31;;;;;;;;;;;;;;;3.24;64.21;100503.47;5176266;27;19990;-70
2021/04/24 00:09:59;;;;;;;;;;;;;;;3.23;64.15;100505.16;5176248;27;19923;-70
2021/04/24 00:12:27;;;;;;;;;;;;;;;3.24;64.33;100506.00;5176227;27;20007;-71
2021/04/24 00:14:54;;;;;;;;;;;;;;;3.22;64.33;100502.53;5176217;27;19923;-70
2021/04/24 00:17:22;;;;;;;;;;;;;;;3.18;65.13;100498.19;5178013;27;20363;-70
2021/04/24 00:19:51;;;;;;;;;;;;;;;3.16;64.40;100498.13;5180204;27;20342;-70
2021/04/24 00:22:19;;;;;;;;;;;;;;;3.16;65.25;100492.22;5161600;27;19994;-70
2021/04/24 00:24:46;;;;;;;;;;;;;;;3.15;65.39;100491.34;5180209;27;19991;-70
2021/04/24 00:27:14;;;;;;;;;;;;;;;3.13;65.60;100492.09;5180163;27;19923;-71
2021/04/24 00:29:44;;;;;;;;;;;;;;;3.08;65.82;100488.50;5180464;27;19946;-71
2021/04/24 00:32:12;;;;;;;;;;;;;;;3.02;65.80;100488.25;5179948;27;20392;-70
2021/04/24 00:34:40;;;;;;;;;;;;;;;2.98;65.42;100497.34;5179975;27;19933;-70
2021/04/24 00:37:09;;;;;;;;;;;;;;;2.89;65.58;100498.59;5179663;27;19955;-71
2021/04/24 00:39:37;;;;;;;;;;;;;;;2.84;66.52;100495.91;5161275;27;19923;-70
2021/04/24 00:42:05;;;;;;;;;;;;;;;2.83;66.46;100490.81;5179783;27;19929;-70
2021/04/24 00:44:32;;;;;;;;;;;;;;;2.82;66.57;100494.09;5180070;27;19927;-71
2021/04/24 00:47:02;;;;;;;;;;;;;;;2.81;66.69;100502.47;5179711;27;20376;-71
2021/04/24 00:49:31;;;;;;;;;;;;;;;2.79;66.42;100493.97;5179919;27;19922;-71
2021/04/24 00:51:58;;;;;;;;;;;;;;;2.76;66.62;100501.41;5179589;27;20355;-70
2021/04/24 00:54:27;;;;;;;;;;;;;;;2.77;66.56;100505.66;5179589;27;19929;-70
2021/04/24 00:56:55;;;;;;;;;;;;;;;2.81;67.32;100503.31;5179486;27;20493;-71
2021/04/24 00:59:23;;;;;;;;;;;;;;;2.79;66.88;100501.53;5179523;27;19948;-71
2021/04/24 01:01:52;;;;;;;;;;;;;;;2.82;66.77;100499.16;5179551;27;19923;-71
2021/04/24 01:04:20;;;;;;;;;;;;;;;2.88;67.19;100494.38;5179406;27;20428;-71
2021/04/24 01:06:48;;;;;;;;;;;;;;;2.89;66.62;100496.09;5179355;27;19922;-70
2021/04/24 01:09:16;;;;;;;;;;;;;;;2.72;66.69;100492.84;5161053;27;19929;-70
2021/04/24 01:11:44;;;;;;;;;;;;;;;2.62;67.36;100496.63;5179204;27;20018;-70
2021/04/24 01:14:12;;;;;;;;;;;;;;;2.58;68.03;100499.81;5160901;27;19933;-71
2021/04/24 01:16:41;;;;;;;;;;;;;;;2.63;67.64;100498.38;5179045;27;19930;-72
2021/04/24 01:19:09;;;;;;;;;;;;;;;2.67;67.96;100499.34;5179122;27;19923;-70
2021/04/24 01:21:38;;;;;;;;;;;;;;;2.67;67.71;100495.16;5179027;27;19923;-70
2021/04/24 01:24:08;;;;;;;;;;;;;;;2.61;67.62;100499.97;5160746;27;19929;-70
2021/04/24 01:26:36;;;;;;;;;;;;;;;2.56;67.99;100493.84;5179585;27;19922;-71
2021/04/24 01:29:04;;;;;;;;;;;;;;;2.52;68.04;100504.56;5178543;27;19923;-70
2021/04/24 01:31:33;;;;;;;;;;;;;;;2.53;67.91;100501.25;5178784;27;19979;-70
2021/04/24 01:34:00;;;;;;;;;;;;;;;2.54;68.10;100505.50;5179140;27;19945;-70
2021/04/24 01:36:29;;;;;;;;;;;;;;;2.50;67.84;100501.13;5178585;27;19923;-70
2021/04/24 01:38:56;;;;;;;;;;;;;;;2.55;68.32;100497.16;5178688;27;20333;-70
2021/04/24 01:41:25;;;;;;;;;;;;;;;2.55;67.96;100494.63;5178667;27;19975;-70
2021/04/24 01:43:53;;;;;;;;;;;;;;;2.50;68.18;100496.09;5178554;27;20383;-70
2021/04/24 01:46:21;;;;;;;;;;;;;;;2.49;68.33;100489.34;5178546;27;19923;-70
2021/04/24 01:48:49;;;;;;;;;;;;;;;2.48;68.34;100490.13;5178502;27;19969;-70
2021/04/24 01:51:17;;;;;;;;;;;;;;;2.45;68.54;100492.50;5178518;27;19958;-70
2021/04/24 01:53:47;;;;;;;;;;;;;;;2.40;69.04;100491.44;5178400;27;20021;-71
2021/04/24 01:56:41;;;;;;;;;;;;;;;2.38;68.64;100490.50;5178308;27;19922;-70
2021/04/24 01:59:08;;;;;;;;;;;;;;;2.39;68.57;100494.75;5178367;27;19926;-70
2021/04/24 02:01:36;;;;;;;;;;;;;;;2.38;68.49;100499.72;5178272;27;19975;-71
2021/04/24 02:04:04;;;;;;;;;;;;;;;2.41;69.08;100505.75;5178201;27;19934;-70
2021/04/24 02:06:32;;;;;;;;;;;;;;;2.45;68.52;100502.56;5178129;27;19935;-71
2021/04/24 02:08:59;;;;;;;;;;;;;;;2.44;68.44;100500.00;5178098;27;19923;-70
2021/04/24 02:11:27;;;;;;;;;;;;;;;2.37;68.51;100503.91;5178059;27;19922;-70
2021/04/24 02:13:56;;;;;;;;;;;;;;;2.33;68.72;100501.16;5159616;27;20272;-71
2021/04/24 02:16:24;;;;;;;;;;;;;;;2.23;68.98;100499.88;5177946;27;20375;-70
2021/04/24 02:18:51;;;;;;;;;;;;;;;2.12;69.17;100496.03;5177913;27;19923;-69
2021/04/24 02:21:19;;;;;;;;;;;;;;;2.11;69.11;100504.38;5177861;27;19954;-70
2021/04/24 02:23:47;;;;;;;;;;;;;;;2.11;69.13;100501.88;5177721;27;20376;-70
2021/04/24 02:26:15;;;;;;;;;;;;;;;2.17;69.12;100499.63;5177724;27;19946;-71
2021/04/24 02:28:43;;;;;;;;;;;;;;;2.23;68.87;100499.03;5177715;27;19930;-70
2021/04/24 02:31:12;;;;;;;;;;;;;;;2.26;69.13;100494.13;5177659;27;19975;-71
2021/04/24 02:33:40;;;;;;;;;;;;;;;2.23;69.23;100494.00;5177803;27;20021;-71
2021/04/24 02:36:08;;;;;;;;;;;;;;;2.26;68.83;100497.50;5177324;27;19930;-72
2021/04/24 02:38:35;;;;;;;;;;;;;;;2.27;68.60;100496.72;5177402;27;19923;-70
2021/04/24 02:41:05;;;;;;;;;;;;;;;2.22;68.86;100493.13;5176797;27;19923;-71
2021/04/24 02:43:32;;;;;;;;;;;;;;;2.20;69.01;100499.75;5177346;27;19927;-70
2021/04/24 02:46:00;;;;;;;;;;;;;;;2.21;69.15;100501.47;5177725;27;20022;-71
2021/04/24 02:48:29;;;;;;;;;;;;;;;2.21;68.58;100501.47;5177367;27;19923;-71
2021/04/24 02:50:57;;;;;;;;;;;;;;;2.22;69.12;100492.28;5158770;27;19922;-71
2021/04/24 02:53:24;;;;;;;;;;;;;;;2.14;68.81;100488.53;5177245;27;19923;-71
2021/04/24 02:55:52;;;;;;;;;;;;;;;2.03;68.68;100490.56;5177136;27;20300;-71
2021/04/24 02:58:20;;;;;;;;;;;;;;;1.97;69.23;100486.13;5177079;27;19958;-71
2021/04/24 03:00:48;;;;;;;;;;;;;;;1.94;68.92;100492.69;5177075;27;19954;-71
2021/04/24 03:03:16;;;;;;;;;;;;;;;1.91;69.19;100495.03;5177067;27;20379;-71
2021/04/24 03:05:45;;;;;;;;;;;;;;;1.74;69.08;100495.91;5176974;27;20424;-71
2021/04/24 03:08:13;;;;;;;;;;;;;;;1.71;69.20;100495.75;5177268;27;19962;-71
2021/04/24 03:10:41;;;;;;;;;;;;;;;1.67;69.42;100501.44;5176957;27;19967;-72
2021/04/24 03:13:09;;;;;;;;;;;;;;;1.61;69.23;100503.69;5176931;27;20283;-72
2021/04/24 03:15:37;;;;;;;;;;;;;;;1.43;69.42;100502.78;5176848;27;19967;-72
2021/04/24 03:18:05;;;;;;;;;;;;;;;1.42;69.88;100496.03;5176746;27;20360;-71
2021/04/24 03:20:32;;;;;;;;;;;;;;;1.44;69.70;100494.44;5176822;27;19934;-71
2021/04/24 03:23:04;;;;;;;;;;;;;;;1.29;69.71;100497.97;5176798;27;19929;-72
2021/04/24 03:25:31;;;;;;;;;;;;;;;1.22;69.83;100508.47;5171266;27;19971;-71
2021/04/24 03:27:59;;;;;;;;;;;;;;;1.26;70.59;100505.34;5155869;27;19978;-72
2021/04/24 03:30:27;;;;;;;;;;;;;;;1.28;70.31;100512.94;5155829;27;19970;-73
2021/04/24 03:32:54;;;;;;;;;;;;;;;1.23;71.13;100505.19;5155788;27;19972;-72
2021/04/24 03:35:22;;;;;;;;;;;;;;;1.28;70.72;100513.81;5155881;27;19950;-72
2021/04/24 03:37:50;;;;;;;;;;;;;;;1.37;70.83;100512.56;5155713;27;20022;-73
2021/04/24 03:40:19;;;;;;;;;;;;;;;1.40;70.62;100513.53;5155968;27;19923;-72
2021/04/24 03:42:46;;;;;;;;;;;;;;;1.42;70.36;100511.13;5155713;27;19923;-73
2021/04/24 03:45:22;;;;;;;;;;;;;;;1.42;70.55;100508.63;5155532;27;20381;-72
2021/04/24 03:47:51;;;;;;;;;;;;;;;1.43;70.67;100517.88;5137315;27;19923;-72
2021/04/24 03:50:19;;;;;;;;;;;;;;;1.45;70.47;100521.31;5155755;27;20376;-72
2021/04/24 03:52:46;;;;;;;;;;;;;;;1.47;70.64;100520.59;5159933;27;19923;-72
2021/04/24 03:55:15;;;;;;;;;;;;;;;1.50;70.43;100519.88;5159802;27;19923;-72
2021/04/24 03:57:44;;;;;;;;;;;;;;;1.46;70.44;100525.56;5141188;27;19927;-73
2021/04/24 04:00:13;;;;;;;;;;;;;;;1.38;70.43;100534.38;5159781;27;19976;-73
2021/04/24 04:02:44;;;;;;;;;;;;;;;1.35;70.86;100535.94;5159777;27;19966;-72
2021/04/24 04:05:12;;;;;;;;;;;;;;;1.47;71.04;100529.78;5159725;27;20021;-72
2021/04/24 04:07:40;;;;;;;;;;;;;;;1.64;71.07;100523.94;5159568;27;19968;-72
2021/04/24 04:10:09;;;;;;;;;;;;;;;1.86;70.47;100531.72;5159559;27;19923;-72
2021/04/24 04:12:37;;;;;;;;;;;;;;;2.02;70.39;100529.13;5159829;27;19984;-72
2021/04/24 04:15:07;;;;;;;;;;;;;;;2.23;70.36;100530.09;5159466;27;19922;-72
2021/04/24 04:17:37;;;;;;;;;;;;;;;2.50;69.66;100527.97;5159343;27;19975;-72
2021/04/24 04:20:06;;;;;;;;;;;;;;;2.78;69.38;100525.03;5159399;27;19923;-72
2021/04/24 04:22:34;;;;;;;;;;;;;;;3.01;68.89;100521.81;5159336;27;20330;-72
2021/04/24 04:25:01;;;;;;;;;;;;;;;3.11;68.78;100521.44;5159281;27;20376;-73
2021/04/24 04:27:29;;;;;;;;;;;;;;;3.18;68.16;100525.91;5140730;27;19927;-72
2021/04/24 04:29:57;;;;;;;;;;;;;;;3.20;67.81;100519.28;5159463;27;19930;-73
2021/04/24 04:32:27;;;;;;;;;;;;;;;3.20;67.15;100519.28;5159118;27;19976;-72
2021/04/24 04:34:54;;;;;;;;;;;;;;;3.14;67.18;100521.56;5159398;27;19970;-72
2021/04/24 04:37:22;;;;;;;;;;;;;;;3.09;66.87;100530.59;5158784;27;19943;-72
2021/04/24 04:39:50;;;;;;;;;;;;;;;3.10;66.62;100519.69;5159322;27;19929;-72
2021/04/24 04:42:18;;;;;;;;;;;;;;;3.16;67.23;100522.47;5159308;27;19927;-71
2021/04/24 04:44:46;;;;;;;;;;;;;;;3.19;67.05;100522.63;5158936;27;19923;-72
2021/04/24 04:47:14;;;;;;;;;;;;;;;3.21;66.37;100521.00;5158746;27;19951;-71
2021/04/24 04:49:43;;;;;;;;;;;;;;;3.23;66.56;100516.91;5158791;27;20272;-71
2021/04/24 04:52:11;;;;;;;;;;;;;;;3.27;67.13;100523.78;5140372;27;19923;-71
2021/04/24 04:54:39;;;;;;;;;;;;;;;3.34;66.35;100528.28;5158732;27;19923;-70
2021/04/24 04:57:07;;;;;;;;;;;;;;;3.45;67.04;100526.22;5158550;27;20376;-71
2021/04/24 04:59:35;;;;;;;;;;;;;;;3.50;66.79;100530.66;5158621;27;20444;-70
2021/04/24 05:02:02;;;;;;;;;;;;;;;3.56;66.87;100525.84;5158382;27;20505;-71
2021/04/24 05:04:33;;;;;;;;;;;;;;;3.64;66.05;100537.13;5158441;27;19927;-70
2021/04/24 05:07:02;;;;;;;;;;;;;;;3.72;66.16;100530.69;5158464;27;20339;-70
2021/04/24 05:09:29;;;;;;;;;;;;;;;3.82;65.54;100532.78;5158621;27;19971;-68
2021/04/24 05:11:58;;;;;;;;;;;;;;;3.91;65.93;100533.16;5158376;27;20014;-71
2021/04/24 05:14:25;;;;;;;;;;;;;;;4.01;65.67;100530.19;5158339;27;19975;-70
2021/04/24 05:16:54;;;;;;;;;;;;;;;4.16;65.90;100531.56;5158600;27;19926;-70
2021/04/24 05:19:22;;;;;;;;;;;;;;;4.27;64.95;100530.34;5158222;27;19930;-70
2021/04/24 05:21:50;;;;;;;;;;;;;;;4.33;65.44;100531.41;5158190;27;19926;-70
2021/04/24 05:24:19;;;;;;;;;;;;;;;4.38;64.52;100529.94;5158100;27;20372;-71
2021/04/24 05:26:47;;;;;;;;;;;;;;;4.53;64.65;100527.13;5158108;27;19923;-70
2021/04/24 05:29:16;;;;;;;;;;;;;;;4.72;65.05;100526.97;5157884;27;20380;-70
2021/04/24 05:31:44;;;;;;;;;;;;;;;4.89;64.68;100530.09;5157520;27;19927;-70
2021/04/24 05:34:11;;;;;;;;;;;;;;;5.02;64.14;100522.13;5158202;27;20391;-71
2021/04/24 05:36:40;;;;;;;;;;;;;;;5.10;63.96;100520.72;5157560;27;19923;-69
2021/04/24 05:39:08;;;;;;;;;;;;;;;5.18;63.53;100520.16;5157684;27;20355;-70
2021/04/24 05:41:38;;;;;;;;;;;;;;;5.22;63.58;100516.94;5157707;27;19923;-71
2021/04/24 05:44:06;;;;;;;;;;;;;;;5.37;63.42;100516.59;5157670;27;19926;-71
2021/04/24 05:46:34;;;;;;;;;;;;;;;5.53;62.78;100513.75;5157883;27;19923;-70
2021/04/24 05:49:01;;;;;;;;;;;;;;;5.63;62.50;100512.38;5157549;27;19966;-70
2021/04/24 05:51:30;;;;;;;;;;;;;;;5.65;61.75;100508.22;5158018;27;19924;-70
2021/04/24 05:53:59;;;;;;;;;;;;;;;5.80;61.99;100503.66;5157465;27;19923;-71
2021/04/24 05:56:27;;;;;;;;;;;;;;;5.93;61.48;100510.84;5157860;27;19923;-69
2021/04/24 05:58:55;;;;;;;;;;;;;;;6.08;61.22;100506.25;5157265;27;19953;-69
2021/04/24 06:01:24;;;;;;;;;;;;;;;6.14;61.23;100506.47;5138741;27;19962;-71
2021/04/24 06:03:53;;;;;;;;;;;;;;;6.31;60.65;100499.34;5157584;27;19962;-70
2021/04/24 06:06:23;;;;;;;;;;;;;;;6.51;60.31;100509.25;5157326;27;20369;-70
2021/04/24 06:08:50;;;;;;;;;;;;;;;6.62;60.11;100502.78;5157150;27;19923;-71
2021/04/24 06:11:18;;;;;;;;;;;;;;;6.73;59.89;100501.44;5157140;27;20295;-70
2021/04/24 06:13:46;;;;;;;;;;;;;;;6.83;59.69;100499.13;5156818;27;20314;-70
2021/04/24 06:16:15;;;;;;;;;;;;;;;6.91;59.36;100490.06;5156521;27;19923;-70
2021/04/24 06:18:42;;;;;;;;;;;;;;;6.97;58.79;100491.06;5156929;27;19970;-70
2021/04/24 06:21:10;;;;;;;;;;;;;;;7.03;58.62;100490.38;5157004;27;19923;-71
2021/04/24 06:23:38;;;;;;;;;;;;;;;7.17;58.63;100489.06;5157109;27;19930;-70
2021/04/24 06:26:06;;;;;;;;;;;;;;;7.39;58.43;100486.22;5156793;27;20042;-71
2021/04/24 06:28:34;;;;;;;;;;;;;;;7.40;57.81;100488.81;5156838;27;19923;-70
2021/04/24 06:31:01;;;;;;;;;;;;;;;7.48;57.39;100489.00;5156816;27;19927;-70
2021/04/24 06:33:30;;;;;;;;;;;;;;;7.57;57.44;100494.31;5156717;27;19946;-71
2021/04/24 06:35:58;;;;;;;;;;;;;;;7.75;57.08;100489.66;5156319;27;19927;-70
2021/04/24 06:38:25;;;;;;;;;;;;;;;7.97;57.57;100493.53;5156455;27;19930;-70
2021/04/24 06:40:53;;;;;;;;;;;;;;;8.11;56.62;100492.16;5156455;27;19966;-70
2021/04/24 06:43:21;;;;;;;;;;;;;;;8.26;57.03;100496.72;5156470;27;19952;-71
2021/04/24 06:45:48;;;;;;;;;;;;;;;8.27;55.78;100493.41;5156329;27;20013;-70
2021/04/24 06:48:16;;;;;;;;;;;;;;;8.37;55.35;100490.25;5156176;27;19924;-71
2021/04/24 06:50:45;;;;;;;;;;;;;;;8.54;55.95;100487.19;5156130;27;20014;-72
2021/04/24 06:53:13;;;;;;;;;;;;;;;8.71;54.91;100484.97;5156309;27;19934;-70
2021/04/24 06:55:40;;;;;;;;;;;;;;;8.77;54.83;100485.13;5156214;27;19930;-70
2021/04/24 06:58:08;;;;;;;;;;;;;;;9.00;55.32;100478.75;5156087;27;20030;-71
2021/04/24 07:00:36;;;;;;;;;;;;;;;9.21;54.89;100481.69;5137758;27;20355;-70
2021/04/24 07:03:04;;;;;;;;;;;;;;;9.28;53.92;100478.44;5156039;27;19930;-71
2021/04/24 07:05:31;;;;;;;;;;;;;;;9.27;53.50;100469.06;5156364;27;20383;-70
2021/04/24 07:08:00;;;;;;;;;;;;;;;9.37;52.54;100476.03;5156112;27;20387;-70
2021/04/24 07:10:28;;;;;;;;;;;;;;;9.62;51.83;100479.81;5156297;27;19923;-71
2021/04/24 07:12:55;;;;;;;;;;;;;;;9.82;51.66;100470.81;5155934;27;20376;-71
2021/04/24 07:15:23;;;;;;;;;;;;;;;10.08;51.75;100473.72;5155940;27;19927;-71
2021/04/24 07:17:51;;;;;;;;;;;;;;;10.14;50.84;100470.44;5156033;27;19923;-71
2021/04/24 07:20:20;;;;;;;;;;;;;;;10.33;51.20;100470.72;5155952;27;20299;-71
2021/04/24 07:22:48;;;;;;;;;;;;;;;10.52;49.99;100462.44;5156242;27;20300;-71
2021/04/24 07:25:16;;;;;;;;;;;;;;;10.64;49.21;100462.59;5155769;27;19923;-71
2021/04/24 07:27:44;;;;;;;;;;;;;;;10.72;48.64;100460.97;5155680;27;19954;-70
2021/04/24 07:30:14;;;;;;;;;;;;;;;10.78;48.94;100458.50;5155760;27;19927;-71
2021/04/24 07:32:41;;;;;;;;;;;;;;;10.88;48.50;100463.69;5155694;27;20417;-71
2021/04/24 07:35:09;;;;;;;;;;;;;;;11.11;48.43;100457.13;5155483;27;19923;-71
2021/04/24 07:37:39;;;;;;;;;;;;;;;11.34;47.99;100463.31;5155020;27;20351;-71
2021/04/24 07:40:07;;;;;;;;;;;;;;;11.32;47.63;100463.31;5155583;27;19978;-70
2021/04/24 07:42:36;;;;;;;;;;;;;;;11.33;46.98;100462.44;5155633;27;19923;-70
2021/04/24 07:45:05;;;;;;;;;;;;;;;11.38;46.39;100458.22;5155542;27;19923;-71
2021/04/24 07:47:32;;;;;;;;;;;;;;;11.58;46.27;100465.19;5155602;27;20368;-71
2021/04/24 07:50:00;;;;;;;;;;;;;;;11.74;45.83;100452.56;5155540;27;19923;-71
2021/04/24 07:52:28;;;;;;;;;;;;;;;11.83;46.67;100465.41;5155479;27;19967;-71
2021/04/24 07:54:55;;;;;;;;;;;;;;;12.02;46.11;100463.84;5155420;27;19929;-71
2021/04/24 07:57:23;;;;;;;;;;;;;;;12.22;46.13;100462.22;5155387;27;19980;-72
2021/04/24 07:59:52;;;;;;;;;;;;;;;12.23;45.60;100455.41;5155699;27;20349;-72
2021/04/24 08:02:20;;;;;;;;;;;;;;;12.17;45.31;100452.81;5155405;27;20005;-71
2021/04/24 08:04:48;;;;;;;;;;;;;;;12.15;45.03;100454.50;5155672;27;20292;-72
2021/04/24 08:07:15;;;;;;;;;;;;;;;12.17;45.04;100455.38;5155566;27;19962;-71
2021/04/24 08:09:45;;;;;;;;;;;;;;;12.12;44.59;100446.84;5155321;27;19930;-71
2021/04/24 08:12:13;;;;;;;;;;;;;;;12.28;45.00;100446.06;5155330;27;19976;-71
2021/04/24 08:14:41;;;;;;;;;;;;;;;12.37;44.63;100448.66;5155626;27;19946;-72
2021/04/24 08:17:09;;;;;;;;;;;;;;;12.52;44.89;100446.16;5137244;27;19962;-73
2021/04/24 08:19:37;;;;;;;;;;;;;;;12.61;44.63;100441.06;5155213;27;20437;-71
2021/04/24 08:22:06;;;;;;;;;;;;;;;12.57;44.43;100444.47;5155555;27;19987;-71
2021/04/24 08:24:34;;;;;;;;;;;;;;;12.72;44.64;100441.94;5155286;27;20285;-71
2021/04/24 08:27:02;;;;;;;;;;;;;;;12.77;44.43;100442.81;5155251;27;19923;-71
2021/04/24 08:29:29;;;;;;;;;;;;;;;12.98;44.02;100442.84;5155390;27;20288;-72
2021/04/24 08:31:58;;;;;;;;;;;;;;;13.14;43.74;100436.97;5155163;27;19929;-71
2021/04/24 08:34:27;;;;;;;;;;;;;;;13.31;44.03;100436.97;5155143;27;19923;-71
2021/04/24 08:36:55;;;;;;;;;;;;;;;13.57;43.65;100434.38;5154894;27;19998;-71
2021/04/24 08:39:25;;;;;;;;;;;;;;;13.65;43.37;100432.69;5158587;27;20322;-71
2021/04/24 08:41:53;;;;;;;;;;;;;;;13.73;43.50;100430.94;5158959;27;19956;-72
2021/04/24 08:44:21;;;;;;;;;;;;;;;13.76;43.39;100425.81;5140776;27;19923;-73
2021/04/24 08:46:50;;;;;;;;;;;;;;;13.91;43.45;100430.91;5158873;27;19924;-72
2021/04/24 08:49:19;;;;;;;;;;;;;;;13.91;42.70;100429.22;5158754;27;19923;-72
2021/04/24 08:51:48;;;;;;;;;;;;;;;13.93;42.66;100431.78;5158764;27;20269;-73
2021/04/24 08:54:16;;;;;;;;;;;;;;;14.05;42.84;100424.91;5158596;27;20034;-72
2021/04/24 08:56:44;;;;;;;;;;;;;;;14.13;42.56;100427.44;5158622;27;20348;-72
2021/04/24 08:59:12;;;;;;;;;;;;;;;14.13;42.13;100427.44;5140214;27;20021;-72
2021/04/24 09:01:40;;;;;;;;;;;;;;;14.24;41.23;100433.38;5158522;27;19923;-72
2021/04/24 09:04:08;;;;;;;;;;;;;;;14.18;41.10;100425.69;5158420;27;19927;-72
2021/04/24 09:06:36;;;;;;;;;;;;;;;14.26;41.17;100429.09;5158372;27;20304;-72
2021/04/24 09:09:07;;;;;;;;;;;;;;;14.33;41.58;100423.09;5158695;27;19965;-72
2021/04/24 09:11:41;;;;;;;;;;;;;;;14.57;42.43;100422.13;5158365;27;19954;-72
2021/04/24 09:14:11;;;;;;;;;;;;;;;14.74;41.92;100418.63;5158300;27;19923;-72
2021/04/24 09:16:39;;;;;;;;;;;;;;;14.88;41.58;100415.09;5158578;27;19962;-71
2021/04/24 09:19:22;;;;;;;;;;;;;;;14.93;40.93;100408.22;5158083;27;19923;-72
2021/04/24 09:22:10;;;;;;;;;;;;;;;15.13;41.23;100411.50;5158312;27;19923;-72
2021/04/24 09:24:39;;;;;;;;;;;;;;;15.14;39.74;100408.09;5158188;27;20262;-73
2021/04/24 09:27:07;;;;;;;;;;;;;;;15.14;39.30;100402.94;5158001;27;20376;-72
2021/04/24 09:29:50;;;;;;;;;;;;;;;15.12;39.18;100400.38;5158427;27;19923;-72
2021/04/24 09:32:19;;;;;;;;;;;;;;;15.06;38.12;100399.56;5158194;27;20035;-73
2021/04/24 09:34:47;;;;;;;;;;;;;;;15.01;37.89;100399.59;5139479;27;20269;-72
2021/04/24 09:37:15;;;;;;;;;;;;;;;15.02;37.92;100398.72;5157743;27;19927;-71
2021/04/24 09:39:48;;;;;;;;;;;;;;;14.93;38.07;100388.50;5157721;27;20359;-71
2021/04/24 09:42:26;;;;;;;;;;;;;;;14.78;37.84;100386.91;5157896;27;19923;-71
2021/04/24 09:44:54;;;;;;;;;;;;;;;14.94;38.11;100389.38;5158058;27;19962;-71
2021/04/24 09:47:21;;;;;;;;;;;;;;;15.15;38.32;100384.06;5157671;27;19923;-72
2021/04/24 09:49:49;;;;;;;;;;;;;;;15.30;37.64;100376.22;5157344;27;19929;-71
2021/04/24 09:52:21;;;;;;;;;;;;;;;15.23;37.59;100377.16;5157825;27;19987;-71
2021/04/24 09:54:50;;;;;;;;;;;;;;;15.07;38.51;100380.72;5157625;27;20029;-72
2021/04/24 09:57:20;;;;;;;;;;;;;;;14.92;38.17;100380.81;5157417;27;19930;-72
2021/04/24 09:59:52;;;;;;;;;;;;;;;14.93;38.74;100367.09;5157770;27;19945;-72
2021/04/24 10:02:28;;;;;;;;;;;;;;;15.12;39.67;100366.09;5157568;27;19923;-73
2021/04/24 10:05:05;;;;;;;;;;;;;;;15.29;39.44;100361.66;5157406;27;19930;-72
2021/04/24 10:07:34;;;;;;;;;;;;;;;15.36;39.27;100359.00;5157359;27;20376;-71
2021/04/24 10:10:03;;;;;;;;;;;;;;;15.33;38.78;100358.22;5157484;27;20322;-72
2021/04/24 10:12:31;;;;;;;;;;;;;;;15.35;38.89;100351.31;5157781;27;19923;-72
2021/04/24 10:14:59;;;;;;;;;;;;;;;15.54;38.48;100342.59;5157106;27;20371;-72
2021/04/24 10:17:28;;;;;;;;;;;;;;;15.76;38.30;100344.06;5157457;27;20352;-72
2021/04/24 10:19:56;;;;;;;;;;;;;;;15.85;37.39;100343.97;5156965;27;19930;-72
2021/04/24 10:22:25;;;;;;;;;;;;;;;15.89;37.65;100329.31;5156936;27;19927;-73
2021/04/24 10:24:53;;;;;;;;;;;;;;;15.75;38.03;100332.06;5156981;27;19952;-73
2021/04/24 10:27:22;;;;;;;;;;;;;;;15.49;37.86;100328.91;5156916;27;19923;-72
2021/04/24 10:29:51;;;;;;;;;;;;;;;15.12;37.13;100327.50;5156954;27;19968;-70
2021/04/24 10:32:19;;;;;;;;;;;;;;;14.72;37.23;100320.13;5156803;27;19923;-70
2021/04/24 10:34:47;;;;;;;;;;;;;;;14.42;37.58;100310.03;5157338;27;19923;-70
2021/04/24 10:37:15;;;;;;;;;;;;;;;14.49;38.20;100306.56;5156473;27;19923;-71
2021/04/24 10:40:01;;;;;;;;;;;;;;;14.97;39.16;100301.97;5156550;27;19923;-72
2021/04/24 10:42:30;;;;;;;;;;;;;;;15.55;38.93;100292.81;5156622;27;19955;-72
2021/04/24 10:44:59;;;;;;;;;;;;;;;15.62;37.39;100291.03;5157055;27;20005;-73
2021/04/24 10:47:37;;;;;;;;;;;;;;;15.51;36.71;100293.72;5138377;27;19930;-73
2021/04/24 10:50:07;;;;;;;;;;;;;;;15.56;36.86;100279.09;5156472;27;20437;-72
2021/04/24 10:52:35;;;;;;;;;;;;;;;15.72;36.76;100274.59;5156668;27;19930;-72
2021/04/24 10:55:16;;;;;;;;;;;;;;;15.94;37.18;100282.06;5156347;27;19931;-72
2021/04/24 10:57:45;;;;;;;;;;;;;;;16.18;37.75;100264.56;5156741;27;20295;-72
2021/04/24 11:00:14;;;;;;;;;;;;;;;16.22;37.32;100261.09;5155931;27;19927;-73
2021/04/24 11:02:43;;;;;;;;;;;;;;;16.06;35.65;100258.72;5156128;27;20351;-71
2021/04/24 11:05:22;;;;;;;;;;;;;;;16.32;36.37;100262.63;5156346;27;19929;-72
2021/04/24 11:08:11;;;;;;;;;;;;;;;16.43;35.47;100261.63;5156258;27;20388;-74
2021/04/24 11:10:42;;;;;;;;;;;;;;;16.28;34.67;100251.53;5155935;27;20342;-72
2021/04/24 11:13:11;;;;;;;;;;;;;;;16.52;35.20;100256.34;5156703;27;19983;-73
2021/04/24 11:15:39;;;;;;;;;;;;;;;16.72;35.07;100258.63;5156028;27;19962;-73
2021/04/24 11:18:10;;;;;;;;;;;;;;;16.70;34.52;100252.63;5155887;27;19984;-72
2021/04/24 11:20:49;;;;;;;;;;;;;;;16.91;35.12;100249.69;5156107;27;20433;-73
2021/04/24 11:23:28;;;;;;;;;;;;;;;16.86;34.48;100246.34;5155874;27;19930;-73
2021/04/24 11:25:56;;;;;;;;;;;;;;;16.74;34.28;100246.56;5155957;27;19927;-72
2021/04/24 11:28:25;;;;;;;;;;;;;;;16.67;34.15;100235.50;5155770;27;19931;-72
2021/04/24 11:30:56;;;;;;;;;;;;;;;16.60;33.40;100233.88;5155824;27;19952;-71
2021/04/24 11:33:31;;;;;;;;;;;;;;;16.59;33.63;100239.06;5156022;27;19934;-73
2021/04/24 11:36:09;;;;;;;;;;;;;;;16.70;33.61;100224.25;5155565;27;19968;-72
2021/04/24 11:38:48;;;;;;;;;;;;;;;16.73;33.07;100237.97;5155717;27;19972;-71
2021/04/24 11:41:33;;;;;;;;;;;;;;;16.83;33.25;100224.91;5155994;27;19923;-73
2021/04/24 11:44:23;;;;;;;;;;;;;;;17.03;34.17;100228.84;5156067;27;19958;-73
2021/04/24 11:46:52;;;;;;;;;;;;;;;17.13;34.72;100219.22;5155534;27;20368;-73
2021/04/24 11:49:20;;;;;;;;;;;;;;;17.13;34.09;100219.22;5155591;27;19946;-73
2021/04/24 11:51:51;;;;;;;;;;;;;;;16.86;33.30;100220.56;5137105;27;19955;-73
2021/04/24 11:54:27;;;;;;;;;;;;;;;16.81;33.65;100211.19;5155711;27;19948;-72
2021/04/24 11:56:57;;;;;;;;;;;;;;;16.99;34.42;100209.13;5155568;27;19923;-72
2021/04/24 11:59:32;;;;;;;;;;;;;;;17.24;33.92;100202.66;5155456;27;20383;-72
2021/04/24 12:02:03;;;;;;;;;;;;;;;17.31;33.79;100214.56;5155481;27;19923;-72
2021/04/24 12:04:32;;;;;;;;;;;;;;;17.19;32.91;100203.59;5155543;27;19983;-72
2021/04/24 12:07:04;;;;;;;;;;;;;;;17.22;32.67;100198.41;5155440;27;19973;-73
2021/04/24 12:09:45;;;;;;;;;;;;;;;17.16;32.89;100199.34;5155792;27;19958;-73
2021/04/24 12:12:13;;;;;;;;;;;;;;;17.37;33.86;100193.78;5157450;27;19927;-73
2021/04/24 12:14:41;;;;;;;;;;;;;;;17.38;32.63;100190.31;5159526;27;19975;-72
2021/04/24 12:17:10;;;;;;;;;;;;;;;17.17;32.03;100180.44;5159811;27;19996;-71
2021/04/24 12:19:38;;;;;;;;;;;;;;;17.06;32.19;100181.53;5141154;27;20033;-72
2021/04/24 12:22:11;;;;;;;;;;;;;;;16.99;32.13;100170.44;5140919;27;19923;-72
2021/04/24 12:24:50;;;;;;;;;;;;;;;17.22;32.48;100176.03;5159404;27;19923;-73
2021/04/24 12:27:29;;;;;;;;;;;;;;;17.25;32.46;100175.94;5159720;27;20364;-73
2021/04/24 12:29:58;;;;;;;;;;;;;;;17.19;32.37;100172.66;5159412;27;19923;-72
2021/04/24 12:32:27;;;;;;;;;;;;;;;17.22;33.12;100168.28;5159181;27;19923;-72
2021/04/24 12:34:54;;;;;;;;;;;;;;;17.31;33.00;100157.78;5159118;27;20376;-72
2021/04/24 12:37:22;;;;;;;;;;;;;;;17.54;33.33;100159.91;5159239;27;19976;-72
2021/04/24 12:40:01;;;;;;;;;;;;;;;17.84;33.25;100150.66;5158912;27;19923;-72
2021/04/24 12:42:28;;;;;;;;;;;;;;;17.95;32.64;100148.66;5159346;27;19959;-71
2021/04/24 12:44:57;;;;;;;;;;;;;;;18.01;32.38;100145.94;5159186;27;19935;-73
2021/04/24 12:47:25;;;;;;;;;;;;;;;18.10;32.28;100135.38;5158881;27;19929;-73
2021/04/24 12:49:53;;;;;;;;;;;;;;;18.02;31.62;100138.16;5158752;27;19923;-72
2021/04/24 12:52:21;;;;;;;;;;;;;;;18.02;31.78;100134.72;5159005;27;20019;-72